Time;durP1;ratioP1;P1;durP2;ratioP2;P2;SDS_P1;SDS_P2;PMS_P1;PMS_P2;Temp;Humidity;BMP_temperature;BMP_pressure;BME280_temperature;BME280_humidity;BME280_pressure;Samples;Min_cycle;Max_cycle;Signal;HPM_P1;HPM_P2
2022/04/10 00:00:13;;;;;;;4.32;1.75;;;;;;;11.07;46.01;93676.38;5111858;28;20047;-70
2022/04/10 00:02:40;;;;;;;5.78;1.92;;;;;;;10.94;45.94;93683.81;5127372;28;20027;-70
2022/04/10 00:05:05;;;;;;;4.97;1.90;;;;;;;10.98;46.56;93679.94;5093268;28;20143;-70
2022/04/10 00:07:31;;;;;;;3.88;1.60;;;;;;;11.04;45.67;93681.91;5126984;28;20540;-70
2022/04/10 00:09:56;;;;;;;4.78;1.95;;;;;;;11.01;45.87;93679.63;5110023;28;20050;-70
2022/04/10 00:12:22;;;;;;;5.70;1.85;;;;;;;10.96;45.82;93664.50;5109862;28;20028;-70
2022/04/10 00:14:47;;;;;;;3.03;1.90;;;;;;;10.96;45.84;93664.50;5127192;28;20124;-70
2022/04/10 00:17:13;;;;;;;3.90;2.00;;;;;;;10.99;46.25;93644.38;5092938;28;20081;-70
2022/04/10 00:19:39;;;;;;;3.00;1.95;;;;;;;10.94;47.74;93640.44;5109987;28;20421;-70
2022/04/10 00:22:05;;;;;;;3.80;1.90;;;;;;;10.98;46.63;93650.53;5111110;28;20030;-70
2022/04/10 00:24:31;;;;;;;4.45;1.88;;;;;;;11.10;45.45;93639.69;5109963;28;20027;-70
2022/04/10 00:26:56;;;;;;;3.17;1.58;;;;;;;11.15;46.70;93634.84;5123812;28;20413;-70
2022/04/10 00:29:21;;;;;;;4.18;1.63;;;;;;;11.17;49.02;93639.84;5131567;27;20039;-70
2022/04/10 00:31:47;;;;;;;2.78;1.70;;;;;;;11.07;48.33;93641.78;5131471;27;20019;-70
2022/04/10 00:34:13;;;;;;;4.07;2.05;;;;;;;11.12;49.00;93642.13;5111799;28;20039;-70
2022/04/10 00:36:38;;;;;;;4.03;1.80;;;;;;;11.11;48.54;93646.50;5095499;28;20101;-70
2022/04/10 00:39:04;;;;;;;4.57;1.60;;;;;;;11.09;47.67;93643.28;5123954;28;20454;-70
2022/04/10 00:41:30;;;;;;;5.07;1.80;;;;;;;10.93;49.67;93631.03;5130194;28;20489;-70
2022/04/10 00:44:03;;;;;;;4.97;2.00;;;;;;;10.89;49.08;93636.69;5110271;27;20093;-70
2022/04/10 00:46:29;;;;;;;5.03;1.98;;;;;;;10.66;49.37;93642.44;5092639;28;20039;-70
2022/04/10 00:48:54;;;;;;;4.00;1.90;;;;;;;10.25;48.47;93631.00;5109709;28;20035;-70
2022/04/10 00:54:04;;;;;;;4.10;1.83;;;;;;;10.49;48.16;93645.94;5112341;28;20043;-72
2022/04/10 00:56:29;;;;;;;3.95;2.00;;;;;;;10.60;47.81;93648.28;5130054;28;20031;-72
2022/04/10 00:58:55;;;;;;;4.55;1.90;;;;;;;10.56;47.69;93639.19;5113097;28;20095;-72
2022/04/10 01:01:20;;;;;;;4.80;2.20;;;;;;;10.62;47.39;93635.16;5112971;28;20035;-72
2022/04/10 01:03:46;;;;;;;4.80;2.03;;;;;;;10.69;47.15;93625.75;5130046;28;20469;-72
2022/04/10 01:06:11;;;;;;;5.93;2.40;;;;;;;10.70;47.34;93635.19;5112952;27;20095;-72
2022/04/10 01:08:36;;;;;;;4.35;1.90;;;;;;;10.78;47.13;93624.00;5133827;27;20076;-72
2022/04/10 01:11:02;;;;;;;4.80;1.88;;;;;;;10.84;48.44;93618.19;5116585;27;20081;-72
2022/04/10 01:13:27;;;;;;;5.03;2.30;;;;;;;10.85;48.60;93619.81;5116495;27;20042;-72
2022/04/10 01:15:53;;;;;;;7.38;2.33;;;;;;;10.78;48.40;93624.81;5116538;27;20385;-72
2022/04/10 01:18:18;;;;;;;7.38;2.10;;;;;;;10.69;48.39;93608.38;5116544;27;20023;-72
2022/04/10 01:20:43;;;;;;;5.35;2.22;;;;;;;10.62;48.46;93611.78;5116354;27;20080;-72
2022/04/10 01:23:09;;;;;;;6.55;2.70;;;;;;;10.73;48.89;93607.09;5134695;27;20503;-72
2022/04/10 01:25:35;;;;;;;6.22;2.40;;;;;;;10.44;50.12;93610.06;5099310;27;20023;-72
2022/04/10 01:28:01;;;;;;;4.00;2.20;;;;;;;10.29;50.39;93620.22;5134445;27;20035;-72
2022/04/10 01:30:27;;;;;;;5.82;1.98;;;;;;;10.29;50.28;93604.63;5132190;27;20023;-72
2022/04/10 01:32:52;;;;;;;5.40;2.08;;;;;;;10.30;50.08;93595.06;5112738;28;20074;-72
2022/04/10 01:35:18;;;;;;;4.57;2.17;;;;;;;10.11;50.62;93598.66;5112964;28;20038;-72
2022/04/10 01:37:44;;;;;;;4.72;2.10;;;;;;;10.02;50.95;93595.19;5112094;28;20096;-72
2022/04/10 01:40:10;;;;;;;4.35;2.10;;;;;;;9.91;50.86;93594.66;5099169;28;20493;-73
2022/04/10 01:42:36;;;;;;;4.65;2.50;;;;;;;10.03;50.05;93593.44;5115377;27;20031;-72
2022/04/10 01:45:01;;;;;;;6.15;2.30;;;;;;;9.94;50.48;93583.97;5118682;27;20038;-72
2022/04/10 01:47:26;;;;;;;5.75;2.30;;;;;;;9.80;51.42;93593.94;5132966;27;20019;-72
2022/04/10 01:49:52;;;;;;;4.70;2.15;;;;;;;9.70;51.27;93603.59;5132649;27;20085;-72
2022/04/10 01:52:17;;;;;;;5.63;2.20;;;;;;;9.70;51.47;93608.78;5104269;27;20038;-72
2022/04/10 01:54:43;;;;;;;4.47;2.13;;;;;;;9.67;52.30;93614.28;5115753;27;20031;-72
2022/04/10 01:57:09;;;;;;;4.35;1.95;;;;;;;9.57;53.38;93626.50;5119035;27;20091;-72
2022/04/10 01:59:34;;;;;;;5.40;1.95;;;;;;;9.60;53.75;93619.22;5095493;28;20472;-72
2022/04/10 02:02:00;;;;;;;4.05;2.10;;;;;;;9.59;53.08;93609.03;5112292;28;20027;-72
2022/04/10 02:04:25;;;;;;;5.10;2.47;;;;;;;9.41;53.85;93616.81;5113749;28;20027;-72
2022/04/10 02:06:51;;;;;;;4.82;2.33;;;;;;;9.42;53.12;93608.09;5113258;28;20036;-72
2022/04/10 02:09:18;;;;;;;6.70;2.13;;;;;;;9.42;53.29;93599.47;5125554;27;20030;-72
2022/04/10 02:11:43;;;;;;;5.10;2.17;;;;;;;9.46;53.07;93593.03;5115613;27;20027;-72
2022/04/10 02:14:08;;;;;;;4.18;1.80;;;;;;;9.32;53.58;93597.78;5115499;27;20087;-72
2022/04/10 02:16:34;;;;;;;5.35;2.20;;;;;;;9.42;53.15;93615.03;5115210;27;20490;-72
2022/04/10 02:18:59;;;;;;;4.00;2.13;;;;;;;9.47;52.34;93598.09;5131605;27;20031;-72
2022/04/10 02:21:25;;;;;;;5.75;1.90;;;;;;;9.50;52.64;93589.16;5115280;27;20023;-72
2022/04/10 02:23:50;;;;;;;4.88;2.00;;;;;;;9.55;52.07;93595.53;5115135;27;20035;-72
2022/04/10 02:26:16;;;;;;;3.50;2.00;;;;;;;9.59;52.82;93596.88;5132209;27;20054;-72
2022/04/10 02:28:41;;;;;;;5.88;1.92;;;;;;;9.67;53.46;93608.25;5132233;27;20043;-72
2022/04/10 02:31:07;;;;;;;6.57;3.10;;;;;;;9.61;52.88;93594.94;5098090;27;20035;-72
2022/04/10 02:33:33;;;;;;;8.30;2.90;;;;;;;9.46;53.32;93614.56;5115088;27;20102;-72
2022/04/10 02:35:59;;;;;;;6.20;2.92;;;;;;;9.38;53.66;93615.31;5114837;27;20031;-72
2022/04/10 02:38:25;;;;;;;5.65;3.00;;;;;;;9.50;53.86;93615.09;5132063;27;20027;-72
2022/04/10 02:40:50;;;;;;;8.63;3.70;;;;;;;9.56;53.66;93623.09;5114921;27;20027;-72
2022/04/10 02:43:15;;;;;;;11.07;3.30;;;;;;;9.54;54.00;93624.22;5133122;27;20023;-72
2022/04/10 02:45:41;;;;;;;7.38;3.13;;;;;;;9.53;53.34;93612.22;5119210;27;20028;-72
2022/04/10 02:48:07;;;;;;;7.88;3.70;;;;;;;9.67;53.21;93622.06;5094379;28;20027;-72
2022/04/10 02:50:33;;;;;;;6.60;3.05;;;;;;;9.50;53.81;93622.88;5094040;28;20028;-72
2022/04/10 02:52:58;;;;;;;5.72;2.60;;;;;;;9.61;53.95;93627.81;5120020;27;20413;-72
2022/04/10 02:55:24;;;;;;;4.90;2.63;;;;;;;9.62;53.82;93621.69;5116864;27;20472;-72
2022/04/10 02:57:49;;;;;;;3.83;2.20;;;;;;;9.69;54.12;93612.31;5102288;28;20027;-72
2022/04/10 03:00:15;;;;;;;6.85;2.45;;;;;;;9.65;54.07;93620.56;5111054;28;20554;-72
2022/04/10 03:02:40;;;;;;;5.70;2.55;;;;;;;9.58;54.33;93592.66;5129729;27;20015;-72
2022/04/10 03:05:07;;;;;;;6.65;2.95;;;;;;;9.79;55.02;93614.84;5114690;27;20051;-72
2022/04/10 03:07:32;;;;;;;6.00;2.50;;;;;;;9.83;54.48;93616.16;5132782;27;20027;-72
2022/04/10 03:09:58;;;;;;;4.85;2.35;;;;;;;9.88;54.86;93621.72;5097518;27;20083;-72
2022/04/10 03:12:23;;;;;;;7.60;2.70;;;;;;;9.98;53.20;93637.19;5130149;27;20023;-72
2022/04/10 03:14:49;;;;;;;5.63;2.30;;;;;;;9.93;53.22;93647.19;5112008;27;20043;-72
2022/04/10 03:17:14;;;;;;;3.97;2.08;;;;;;;9.86;52.17;93639.19;5109491;28;20114;-72
2022/04/10 03:19:40;;;;;;;5.32;1.92;;;;;;;9.81;52.09;93644.03;5093432;28;20031;-72
2022/04/10 03:22:05;;;;;;;3.17;1.98;;;;;;;9.79;52.08;93631.22;5110679;28;20032;-72
2022/04/10 03:24:30;;;;;;;3.58;1.75;;;;;;;9.73;51.76;93618.03;5112140;28;20431;-72
2022/04/10 03:26:56;;;;;;;4.47;2.20;;;;;;;10.09;50.76;93618.78;5093507;28;20053;-72
2022/04/10 03:29:22;;;;;;;5.07;1.95;;;;;;;9.94;51.91;93641.03;5093453;28;20039;-72
2022/04/10 03:31:47;;;;;;;4.60;2.30;;;;;;;9.78;52.44;93660.72;5110476;28;20020;-72
2022/04/10 03:34:13;;;;;;;4.47;2.35;;;;;;;9.81;52.24;93637.06;5110558;28;20472;-72
2022/04/10 03:36:38;;;;;;;2.80;1.65;;;;;;;9.95;52.22;93621.94;5093317;28;20055;-72
2022/04/10 03:39:04;;;;;;;6.50;2.60;;;;;;;9.87;53.02;93658.19;5076585;28;20032;-72
2022/04/10 03:41:29;;;;;;;6.15;2.47;;;;;;;9.83;53.64;93666.28;5110266;28;20036;-72
2022/04/10 03:43:55;;;;;;;4.78;2.15;;;;;;;9.90;52.37;93663.88;5076521;28;20043;-72
2022/04/10 03:46:20;;;;;;;4.55;2.13;;;;;;;9.82;52.54;93662.03;5110191;28;20042;-72
2022/04/10 03:48:45;;;;;;;5.28;1.90;;;;;;;9.92;53.63;93640.38;5111581;28;20443;-72
2022/04/10 03:51:11;;;;;;;5.70;2.30;;;;;;;9.90;53.96;93655.28;5127380;27;20049;-72
2022/04/10 03:53:37;;;;;;;4.57;2.40;;;;;;;9.89;53.53;93649.28;5130730;27;20053;-72
2022/04/10 03:56:02;;;;;;;8.25;2.67;;;;;;;9.92;52.60;93653.34;5130710;27;20023;-72
2022/04/10 03:58:28;;;;;;;5.90;2.42;;;;;;;9.90;53.25;93648.31;5129695;27;20407;-72
2022/04/10 04:00:53;;;;;;;5.22;2.08;;;;;;;9.96;52.18;93639.91;5117007;27;20453;-72
2022/04/10 04:03:18;;;;;;;4.22;2.20;;;;;;;9.93;52.80;93644.59;5130580;27;20492;-72
2022/04/10 04:05:44;;;;;;;2.88;1.88;;;;;;;10.05;53.10;93653.75;5124326;27;20413;-72
2022/04/10 04:08:09;;;;;;;4.45;2.30;;;;;;;10.03;53.46;93624.59;5092925;28;20473;-72
2022/04/10 04:10:35;;;;;;;5.18;2.65;;;;;;;10.21;52.52;93643.50;5111231;28;20382;-72
2022/04/10 04:13:01;;;;;;;6.43;3.20;;;;;;;10.31;52.86;93638.25;5110019;28;20019;-72
2022/04/10 04:15:26;;;;;;;5.43;3.47;;;;;;;10.35;52.26;93655.13;5110296;28;20039;-72
2022/04/10 04:17:52;;;;;;;8.82;3.72;;;;;;;10.49;52.48;93662.34;5118013;28;20023;-72
2022/04/10 04:20:17;;;;;;;6.28;3.88;;;;;;;10.48;52.40;93691.88;5113348;28;20046;-72
2022/04/10 04:22:43;;;;;;;7.10;3.60;;;;;;;10.47;51.81;93690.25;5130203;28;20031;-72
2022/04/10 04:25:08;;;;;;;7.35;3.42;;;;;;;10.52;51.65;93687.19;5124507;27;20480;-72
2022/04/10 04:27:34;;;;;;;7.90;3.90;;;;;;;10.31;52.43;93678.94;5130170;27;20034;-72
2022/04/10 04:30:01;;;;;;;8.52;3.85;;;;;;;10.31;52.36;93684.13;5109895;28;20047;-71
2022/04/10 04:32:27;;;;;;;6.47;3.75;;;;;;;10.06;52.62;93702.91;5128133;27;20050;-72
2022/04/10 04:34:52;;;;;;;7.22;3.65;;;;;;;9.88;53.30;93711.69;5111311;28;20041;-71
2022/04/10 04:37:18;;;;;;;5.82;3.53;;;;;;;9.48;55.53;93711.16;5110357;28;20494;-72
2022/04/10 04:39:43;;;;;;;7.38;4.15;;;;;;;9.57;55.23;93704.28;5109850;28;20027;-72
2022/04/10 04:42:09;;;;;;;7.95;4.32;;;;;;;9.81;55.56;93709.69;5129643;27;20397;-71
2022/04/10 04:44:34;;;;;;;8.20;5.00;;;;;;;9.87;56.37;93721.25;5110233;28;20043;-71
2022/04/10 04:46:59;;;;;;;7.32;4.50;;;;;;;9.84;56.82;93732.75;5102880;27;20545;-72
2022/04/10 04:49:28;;;;;;;8.73;5.10;;;;;;;10.03;56.27;93738.75;5108795;27;20042;-72
2022/04/10 04:51:54;;;;;;;9.60;5.00;;;;;;;9.92;56.76;93747.56;5133343;27;20080;-71
2022/04/10 04:54:19;;;;;;;9.18;5.57;;;;;;;9.88;57.08;93732.44;5108625;27;20479;-71
2022/04/10 04:56:45;;;;;;;11.60;5.70;;;;;;;9.97;57.61;93741.91;5092081;27;20023;-72
2022/04/10 04:59:12;;;;;;;11.43;6.50;;;;;;;9.92;59.65;93751.91;5093507;27;20417;-74
2022/04/10 05:01:41;;;;;;;8.57;7.68;;;;;;;9.90;60.01;93762.47;5118286;27;20038;-70
2022/04/10 05:04:06;;;;;;;9.32;7.40;;;;;;;9.97;60.79;93765.25;5121169;27;20032;-73
2022/04/10 05:06:32;;;;;;;9.85;8.80;;;;;;;9.90;60.76;93766.84;5093718;28;20092;-73
2022/04/10 05:08:57;;;;;;;13.10;9.68;;;;;;;10.00;61.52;93794.34;5126983;27;20493;-70
2022/04/10 05:11:23;;;;;;;12.52;10.35;;;;;;;9.96;61.25;93780.03;5128020;27;20029;-76
2022/04/10 05:13:48;;;;;;;12.70;10.52;;;;;;;9.88;60.99;93789.50;5095088;27;20077;-73
2022/04/10 05:16:14;;;;;;;12.90;10.02;;;;;;;9.79;61.44;93775.66;5125941;27;20046;-74
2022/04/10 05:18:40;;;;;;;12.13;10.55;;;;;;;9.76;61.59;93776.75;5105890;27;20035;-71
2022/04/10 05:21:05;;;;;;;12.80;11.50;;;;;;;9.59;62.41;93783.56;5129354;27;20517;-71
2022/04/10 05:23:31;;;;;;;16.83;11.52;;;;;;;9.50;62.53;93783.59;5098244;27;20050;-71
2022/04/10 05:25:57;;;;;;;12.27;10.82;;;;;;;9.40;62.46;93768.91;5120025;27;20031;-70
2022/04/10 05:28:22;;;;;;;12.65;11.30;;;;;;;9.41;62.66;93790.47;5095962;27;20038;-70
2022/04/10 05:30:48;;;;;;;14.65;11.77;;;;;;;9.14;63.16;93747.25;5113019;27;20555;-73
2022/04/10 05:33:13;;;;;;;12.48;11.07;;;;;;;9.28;62.27;93785.66;5113682;27;20034;-73
2022/04/10 05:35:38;;;;;;;12.15;10.85;;;;;;;9.16;63.46;93773.81;5122559;27;20066;-73
2022/04/10 05:38:04;;;;;;;13.05;11.23;;;;;;;9.06;63.21;93780.84;5118499;27;20055;-73
2022/04/10 05:40:30;;;;;;;12.75;10.70;;;;;;;9.12;63.92;93785.44;5131702;27;20130;-73
2022/04/10 05:42:55;;;;;;;13.45;11.20;;;;;;;9.09;63.24;93783.94;5128764;27;20152;-73
2022/04/10 05:45:21;;;;;;;13.27;11.52;;;;;;;8.93;63.77;93778.56;5130768;27;20592;-73
2022/04/10 05:47:46;;;;;;;12.73;11.32;;;;;;;8.87;64.16;93782.53;5111588;27;20027;-73
2022/04/10 05:50:12;;;;;;;11.77;10.52;;;;;;;8.82;63.43;93779.53;5112326;27;20039;-73
2022/04/10 05:52:44;;;;;;;13.40;11.43;;;;;;;8.87;63.69;93789.50;5113843;28;20489;-73
2022/04/10 05:55:11;;;;;;;15.45;11.90;;;;;;;8.94;63.87;93816.44;5099239;27;20031;-73
2022/04/10 05:57:36;;;;;;;13.07;11.52;;;;;;;8.75;64.09;93808.72;5131284;27;20015;-73
2022/04/10 06:00:06;;;;;;;22.08;19.45;;;;;;;8.72;64.37;93820.22;5093430;27;20515;-73
2022/04/10 06:02:32;;;;;;;16.25;14.55;;;;;;;8.56;64.17;93825.94;5114329;27;20034;-73
2022/04/10 06:04:57;;;;;;;15.73;13.13;;;;;;;8.73;64.58;93845.13;5135152;27;20043;-73
2022/04/10 06:07:23;;;;;;;12.80;11.25;;;;;;;8.71;63.93;93831.50;5111588;27;20023;-74
2022/04/10 06:09:48;;;;;;;14.23;11.63;;;;;;;8.86;64.17;93837.88;5129364;27;20054;-73
2022/04/10 06:12:14;;;;;;;16.90;13.20;;;;;;;8.69;63.97;93841.16;5130176;27;20035;-73
2022/04/10 06:14:39;;;;;;;15.80;12.55;;;;;;;8.56;63.79;93840.66;5112620;27;20031;-73
2022/04/10 06:17:06;;;;;;;13.60;12.13;;;;;;;8.55;64.38;93844.19;5126601;27;20035;-73
2022/04/10 06:19:31;;;;;;;12.82;10.57;;;;;;;8.58;63.57;93849.09;5124416;27;20041;-73
2022/04/10 06:21:57;;;;;;;12.27;10.98;;;;;;;8.58;63.73;93838.75;5131471;27;20253;-73
2022/04/10 06:24:22;;;;;;;12.85;10.57;;;;;;;8.55;64.54;93841.59;5131308;27;20038;-73
2022/04/10 06:26:51;;;;;;;12.07;10.77;;;;;;;8.52;64.03;93855.63;5116158;27;20472;-73
2022/04/10 06:29:16;;;;;;;13.27;10.80;;;;;;;8.46;64.04;93864.78;5123962;27;20039;-73
2022/04/10 06:31:42;;;;;;;15.85;13.15;;;;;;;8.40;63.44;93852.38;5131150;27;20024;-73
2022/04/10 06:34:07;;;;;;;14.52;12.85;;;;;;;8.41;64.13;93856.63;5121518;27;20043;-73
2022/04/10 06:36:33;;;;;;;13.27;10.45;;;;;;;8.53;63.57;93857.28;5090673;28;20047;-73
2022/04/10 06:38:58;;;;;;;12.60;9.88;;;;;;;8.38;64.42;93854.25;5128671;27;20031;-73
2022/04/10 06:41:24;;;;;;;11.82;9.60;;;;;;;8.35;64.11;93854.53;5129315;27;20027;-73
2022/04/10 06:43:49;;;;;;;13.52;10.25;;;;;;;8.27;63.86;93844.03;5119272;27;20484;-73
2022/04/10 06:46:15;;;;;;;11.95;10.63;;;;;;;8.43;64.56;93844.34;5108412;28;20440;-73
2022/04/10 06:48:40;;;;;;;11.48;9.35;;;;;;;8.44;64.64;93853.75;5098026;28;20035;-73
2022/04/10 06:51:06;;;;;;;13.65;12.02;;;;;;;8.40;64.22;93860.16;5123378;27;20500;-73
2022/04/10 06:53:31;;;;;;;14.95;12.30;;;;;;;8.46;65.27;93857.00;5095541;27;20035;-73
2022/04/10 06:55:56;;;;;;;12.13;9.75;;;;;;;8.54;65.67;93852.94;5098584;27;20019;-73
2022/04/10 06:58:22;;;;;;;10.70;8.52;;;;;;;8.29;63.65;93834.38;5106554;28;20570;-73
2022/04/10 07:00:49;;;;;;;12.55;10.50;;;;;;;8.22;64.17;93828.13;5117661;27;20039;-74
2022/04/10 07:03:14;;;;;;;10.60;8.90;;;;;;;8.21;63.63;93860.13;5126230;27;20594;-72
2022/04/10 07:05:40;;;;;;;10.85;8.05;;;;;;;7.98;64.89;93855.22;5112343;27;20058;-73
2022/04/10 07:08:06;;;;;;;9.45;7.75;;;;;;;7.98;64.79;93860.38;5140029;27;20047;-74
2022/04/10 07:10:31;;;;;;;8.93;7.13;;;;;;;8.04;64.19;93862.41;5130836;27;20063;-73
2022/04/10 07:12:57;;;;;;;9.73;7.70;;;;;;;7.97;64.19;93845.81;5100154;27;20024;-74
2022/04/10 07:15:22;;;;;;;9.80;8.48;;;;;;;8.05;64.83;93851.16;5130786;27;20035;-73
2022/04/10 07:17:48;;;;;;;10.57;8.68;;;;;;;8.09;64.50;93853.44;5105765;27;20088;-74
2022/04/10 07:20:13;;;;;;;9.23;7.18;;;;;;;8.23;64.47;93863.41;5127177;27;20035;-74
2022/04/10 07:25:23;;;;;;;7.75;6.95;;;;;;;8.17;64.39;93851.81;5127147;27;20038;-73
2022/04/10 07:27:48;;;;;;;8.15;6.53;;;;;;;8.12;64.38;93854.00;5122558;27;20038;-74
2022/04/10 07:30:14;;;;;;;8.20;6.20;;;;;;;8.24;63.80;93852.09;5129656;27;20043;-73
2022/04/10 07:32:39;;;;;;;7.25;5.80;;;;;;;8.04;63.08;93844.31;5126460;27;20488;-74
2022/04/10 07:35:05;;;;;;;5.65;4.78;;;;;;;8.14;62.56;93859.03;5128754;27;20066;-73
2022/04/10 07:37:31;;;;;;;5.85;4.47;;;;;;;8.09;62.09;93856.03;5128143;27;20381;-73
2022/04/10 07:39:57;;;;;;;5.53;4.28;;;;;;;7.96;62.23;93859.69;5108985;27;20058;-73
2022/04/10 07:42:22;;;;;;;4.45;3.95;;;;;;;7.87;61.73;93863.09;5129418;27;20477;-73
2022/04/10 07:44:47;;;;;;;5.10;3.53;;;;;;;7.91;62.21;93869.63;5129317;27;20495;-75
2022/04/10 07:47:25;;;;;;;5.65;4.10;;;;;;;8.02;60.69;93861.75;5137840;27;20027;-73
2022/04/10 07:49:50;;;;;;;4.75;4.10;;;;;;;7.98;60.78;93862.97;5107406;28;20042;-74
2022/04/10 07:52:16;;;;;;;6.47;5.05;;;;;;;7.97;61.34;93861.34;5122321;27;20023;-73
2022/04/10 07:54:41;;;;;;;11.02;7.93;;;;;;;8.00;60.41;93865.44;5128814;27;20039;-73
2022/04/10 07:57:07;;;;;;;5.47;3.80;;;;;;;7.93;61.16;93872.88;5107536;28;20023;-74
2022/04/10 07:59:32;;;;;;;6.10;4.50;;;;;;;7.99;60.97;93871.53;5120536;27;20031;-74
2022/04/10 08:01:58;;;;;;;4.00;2.83;;;;;;;8.11;59.89;93872.22;5134201;27;20485;-74
2022/04/10 08:04:23;;;;;;;4.55;3.45;;;;;;;8.03;60.22;93868.56;5111087;28;20035;-74
2022/04/10 08:06:49;;;;;;;3.90;2.80;;;;;;;7.99;60.40;93869.75;5119813;27;20043;-74
2022/04/10 08:09:14;;;;;;;3.35;2.50;;;;;;;8.01;59.73;93878.22;5134992;27;20027;-74
2022/04/10 08:11:40;;;;;;;6.97;4.47;;;;;;;8.07;59.68;93874.28;5119848;27;20119;-73
2022/04/10 08:14:05;;;;;;;6.03;4.78;;;;;;;8.02;59.65;93861.75;5101606;28;20528;-74
2022/04/10 08:16:31;;;;;;;6.53;4.85;;;;;;;8.14;60.40;93872.78;5109914;27;20412;-73
2022/04/10 08:18:56;;;;;;;11.38;7.75;;;;;;;8.10;59.53;93852.50;5111206;28;20038;-74
2022/04/10 08:21:21;;;;;;;11.15;8.07;;;;;;;8.23;59.76;93871.16;5105134;27;20025;-74
2022/04/10 08:23:47;;;;;;;4.68;3.38;;;;;;;8.16;58.84;93868.31;5132465;27;20028;-74
2022/04/10 08:26:12;;;;;;;4.43;3.97;;;;;;;8.11;59.71;93877.41;5132092;27;20039;-74
2022/04/10 08:28:38;;;;;;;12.65;6.82;;;;;;;8.13;58.30;93885.84;5095372;27;20095;-73
2022/04/10 08:31:03;;;;;;;37.65;15.88;;;;;;;8.15;58.38;93889.94;5134857;27;20127;-74
2022/04/10 08:33:28;;;;;;;41.05;22.02;;;;;;;8.13;58.19;93891.84;5132688;27;20508;-73
2022/04/10 08:35:54;;;;;;;5.57;3.25;;;;;;;8.14;56.51;93890.09;5129362;27;20099;-73
2022/04/10 08:38:20;;;;;;;12.45;6.70;;;;;;;7.86;57.41;93892.50;5096093;27;20401;-73
2022/04/10 08:40:46;;;;;;;15.10;9.07;;;;;;;8.01;57.60;93896.31;5125170;27;20497;-73
2022/04/10 08:43:11;;;;;;;8.27;6.68;;;;;;;7.90;57.11;93913.72;5132166;27;20027;-73
2022/04/10 08:45:37;;;;;;;9.65;7.50;;;;;;;7.88;56.59;93919.00;5115047;27;20035;-73
2022/04/10 08:48:03;;;;;;;7.38;5.72;;;;;;;7.79;56.45;93909.47;5141692;27;20023;-74
2022/04/10 08:50:28;;;;;;;9.13;5.90;;;;;;;7.74;55.96;93916.81;5097594;27;20122;-74
2022/04/10 08:52:57;;;;;;;6.50;5.10;;;;;;;7.31;56.96;93943.72;5152582;27;20034;-77
2022/04/10 08:55:23;;;;;;;9.27;6.90;;;;;;;7.29;56.80;93937.84;5131451;27;20493;-73
2022/04/10 08:57:48;;;;;;;4.57;2.95;;;;;;;7.18;57.46;93946.47;5143473;27;20058;-72
2022/04/10 09:00:16;;;;;;;3.92;3.30;;;;;;;6.57;58.52;93882.66;5109630;28;20497;-71
2022/04/10 09:02:48;;;;;;;5.25;1.60;;;;;;;6.89;59.41;93951.50;5131886;27;20061;-73
2022/04/10 09:05:21;;;;;;;2.30;1.70;;;;;;;6.66;59.57;93935.31;5130194;27;20057;-72
2022/04/10 09:08:11;;;;;;;3.85;2.60;;;;;;;6.57;60.32;93941.19;5129825;27;20049;-73
2022/04/10 09:11:01;;;;;;;20.23;12.00;;;;;;;6.34;61.87;93961.09;5128403;27;20035;-70
2022/04/10 09:13:34;;;;;;;9.67;6.53;;;;;;;6.31;63.95;93957.00;5130196;27;20147;-71
2022/04/10 09:16:20;;;;;;;5.20;4.30;;;;;;;6.30;63.43;93949.41;5127962;27;20502;-71
2022/04/10 09:18:58;;;;;;;8.85;5.13;;;;;;;6.02;64.67;93936.94;5108757;27;20070;-75
2022/04/10 09:21:32;;;;;;;4.03;3.13;;;;;;;6.12;64.53;93965.38;5123039;27;20029;-71
2022/04/10 09:24:13;;;;;;;3.42;2.33;;;;;;;5.92;66.76;93942.88;5119362;27;20043;-71
2022/04/10 09:26:49;;;;;;;6.20;4.90;;;;;;;5.90;65.80;93963.63;5134253;27;20483;-69
2022/04/10 09:29:15;;;;;;;3.50;2.17;;;;;;;5.75;64.52;93969.97;5120894;27;20118;-73
2022/04/10 09:31:41;;;;;;;4.35;1.70;;;;;;;5.90;65.42;93965.38;5122553;27;20075;-72
2022/04/10 09:34:17;;;;;;;2.17;1.60;;;;;;;5.54;64.72;93964.69;5150556;27;20403;-72
2022/04/10 09:36:47;;;;;;;2.22;1.70;;;;;;;5.56;65.98;93975.72;5112007;27;20051;-71
2022/04/10 09:39:12;;;;;;;1.60;1.17;;;;;;;5.46;65.24;93988.50;5130128;27;20075;-72
2022/04/10 09:41:39;;;;;;;2.45;1.67;;;;;;;5.61;65.98;93976.19;5128210;27;20031;-72
2022/04/10 09:44:20;;;;;;;2.92;2.22;;;;;;;5.40;66.79;93975.25;5114150;27;20039;-72
2022/04/10 09:46:56;;;;;;;1.92;1.38;;;;;;;5.29;66.87;93965.75;5120164;27;20035;-72
2022/04/10 09:49:22;;;;;;;3.00;1.83;;;;;;;5.36;67.31;93985.78;5099784;27;20047;-74
2022/04/10 09:52:17;;;;;;;4.15;2.75;;;;;;;5.32;66.87;93980.97;5133452;27;20027;-78
2022/04/10 09:54:46;;;;;;;2.63;1.65;;;;;;;5.19;68.17;93983.66;5119962;27;20050;-76
2022/04/10 09:57:13;;;;;;;1.95;1.30;;;;;;;5.11;67.72;93980.84;5132000;27;20031;-76
2022/04/10 09:59:48;;;;;;;2.85;1.77;;;;;;;5.31;68.75;93979.34;5122244;27;20506;-75
2022/04/10 10:02:15;;;;;;;2.58;1.80;;;;;;;5.35;69.46;93976.41;5120220;27;20560;-72
2022/04/10 10:04:41;;;;;;;3.42;2.20;;;;;;;5.29;67.20;93984.63;5119896;27;20404;-77
2022/04/10 10:07:18;;;;;;;2.50;1.73;;;;;;;5.28;67.89;93989.88;5110976;28;20023;-74
2022/04/10 10:09:43;;;;;;;2.97;1.90;;;;;;;5.33;68.59;93986.00;5108879;27;20062;-69
2022/04/10 10:12:09;;;;;;;1.05;0.77;;;;;;;5.36;68.14;93983.19;5130478;27;20065;-69
2022/04/10 10:14:35;;;;;;;2.42;1.75;;;;;;;5.32;67.83;93989.53;5130445;27;20118;-73
2022/04/10 10:17:03;;;;;;;2.63;1.50;;;;;;;5.48;68.37;93984.03;5129960;27;20026;-72
2022/04/10 10:19:38;;;;;;;2.90;1.90;;;;;;;5.48;68.66;93984.03;5129614;27;20051;-68
2022/04/10 10:22:08;;;;;;;3.00;2.05;;;;;;;5.52;68.25;93964.84;5130219;27;20506;-68
2022/04/10 10:24:53;;;;;;;2.80;1.90;;;;;;;5.61;68.61;93983.91;5113266;27;20485;-69
2022/04/10 10:27:26;;;;;;;3.40;2.67;;;;;;;5.70;68.27;93967.75;5127105;27;20093;-69
2022/04/10 10:30:06;;;;;;;5.32;4.53;;;;;;;5.67;66.99;93974.91;5127479;27;20024;-69
2022/04/10 10:32:42;;;;;;;2.60;1.20;;;;;;;5.66;66.89;93968.94;5130586;27;20050;-70
2022/04/10 10:35:31;;;;;;;7.03;3.00;;;;;;;5.62;67.26;93957.22;5097190;27;20786;-70
2022/04/10 10:37:57;;;;;;;5.20;3.30;;;;;;;5.73;67.16;93948.66;5131789;27;20047;-70
2022/04/10 10:40:22;;;;;;;3.85;2.40;;;;;;;5.81;69.10;93946.31;5120725;27;20035;-70
2022/04/10 10:42:49;;;;;;;9.65;5.00;;;;;;;5.69;68.14;93963.53;5120964;27;20338;-71
2022/04/10 10:45:37;;;;;;;6.57;3.65;;;;;;;5.80;66.66;93960.13;5130882;27;20037;-71
2022/04/10 10:48:30;;;;;;;14.20;5.60;;;;;;;5.68;66.39;93949.00;5115989;27;20084;-71
2022/04/10 10:50:59;;;;;;;5.03;3.15;;;;;;;5.62;67.02;93949.47;5123423;27;20466;-71
2022/04/10 10:53:42;;;;;;;2.88;1.95;;;;;;;5.70;66.62;93946.31;5095000;27;20404;-71
2022/04/10 10:56:12;;;;;;;3.22;2.42;;;;;;;5.64;66.20;93936.50;5133576;27;20107;-71
2022/04/10 10:58:40;;;;;;;3.80;2.70;;;;;;;5.69;67.05;93945.50;5123450;27;20240;-70
2022/04/10 11:01:06;;;;;;;3.38;2.38;;;;;;;5.72;66.28;93934.94;5107125;27;20019;-71
2022/04/10 11:03:32;;;;;;;4.43;2.88;;;;;;;5.76;66.63;93938.91;5112418;27;20047;-70
2022/04/10 11:06:06;;;;;;;7.57;4.78;;;;;;;5.71;66.52;93945.38;5131327;27;20027;-70
2022/04/10 11:08:37;;;;;;;12.50;7.95;;;;;;;5.75;66.44;93949.34;5108193;27;20039;-71
2022/04/10 11:11:03;;;;;;;8.40;4.75;;;;;;;5.43;64.91;93929.44;5127399;27;20489;-71
2022/04/10 11:13:41;;;;;;;16.42;7.80;;;;;;;5.48;65.58;93924.78;5130074;27;20043;-71
2022/04/10 11:16:11;;;;;;;7.53;5.10;;;;;;;5.51;66.84;93926.28;5129418;27;20399;-70
2022/04/10 11:18:44;;;;;;;3.88;2.53;;;;;;;5.59;67.34;93935.06;5126676;27;20295;-71
2022/04/10 11:21:16;;;;;;;3.65;2.60;;;;;;;5.36;67.02;93908.50;5131067;27;20026;-74
2022/04/10 11:23:45;;;;;;;5.75;4.25;;;;;;;5.58;66.49;93933.44;5125291;27;20088;-71
2022/04/10 11:26:20;;;;;;;3.75;2.50;;;;;;;5.61;66.38;93934.97;5124246;27;20084;-72
2022/04/10 11:29:00;;;;;;;3.10;1.95;;;;;;;5.67;65.67;93939.63;5106414;27;20035;-71
2022/04/10 11:31:46;;;;;;;4.70;2.97;;;;;;;5.45;65.79;93939.66;5129012;27;20106;-71
2022/04/10 11:34:19;;;;;;;4.40;2.70;;;;;;;5.46;67.23;93938.69;5089625;27;20039;-72
2022/04/10 11:36:52;;;;;;;9.32;6.07;;;;;;;5.29;66.51;93933.09;5126102;27;20046;-72
2022/04/10 11:39:28;;;;;;;8.50;5.13;;;;;;;5.27;66.56;93931.59;5109244;27;20042;-71
2022/04/10 11:41:57;;;;;;;2.85;2.03;;;;;;;5.22;66.41;93939.66;5091766;28;20055;-72